Time;durP1;ratioP1;P1;durP2;ratioP2;P2;SDS_P1;SDS_P2;PMS_P1;PMS_P2;Temp;Humidity;BMP_temperature;BMP_pressure;BME280_temperature;BME280_humidity;BME280_pressure;Samples;Min_cycle;Max_cycle;Signal;HPM_P1;HPM_P2
2022/04/14 00:01:52;;;;;;;;;27.50;23.25;;;;;15.51;77.23;101701.41;5098731;27;45667;-65
2022/04/14 00:04:18;;;;;;;;;26.75;23.75;;;;;15.49;77.62;101705.00;5097403;27;45379;-65
2022/04/14 00:06:43;;;;;;;;;25.50;24.00;;;;;15.45;77.82;101708.63;5098953;27;45723;-65
2022/04/14 00:09:08;;;;;;;;;30.25;22.25;;;;;15.43;77.95;101711.31;5099961;27;45513;-65
2022/04/14 00:11:34;;;;;;;;;21.25;19.50;;;;;15.36;78.07;101715.00;5100789;27;45375;-64
2022/04/14 00:14:02;;;;;;;;;26.00;23.00;;;;;15.34;78.08;101710.72;5100893;27;45602;-65
2022/04/14 00:16:27;;;;;;;;;22.00;20.50;;;;;15.32;78.38;101708.16;5100602;27;45557;-65
2022/04/14 00:18:54;;;;;;;;;22.00;19.75;;;;;15.32;78.39;101709.91;5100603;27;45433;-65
2022/04/14 00:21:19;;;;;;;;;23.25;19.75;;;;;15.32;78.15;101712.53;5098821;27;46010;-65
2022/04/14 00:23:45;;;;;;;;;20.00;18.75;;;;;15.27;78.39;101704.81;5100899;27;45434;-66
2022/04/14 00:26:10;;;;;;;;;20.00;18.50;;;;;15.28;78.45;101716.16;5100562;27;45401;-66
2022/04/14 00:28:39;;;;;;;;;22.25;20.00;;;;;15.25;78.66;101711.03;5097227;27;47155;-65
2022/04/14 00:31:04;;;;;;;;;22.50;20.75;;;;;15.25;78.87;101711.88;5099182;27;46037;-65
2022/04/14 00:33:30;;;;;;;;;23.75;21.50;;;;;15.22;78.82;101714.59;5100396;27;45332;-64
2022/04/14 00:35:56;;;;;;;;;26.75;24.00;;;;;15.18;79.11;101708.56;5099741;27;45529;-64
2022/04/14 00:38:21;;;;;;;;;23.00;17.75;;;;;15.21;78.98;101712.84;5100410;27;46617;-65
2022/04/14 00:40:48;;;;;;;;;19.50;18.00;;;;;15.19;79.03;101706.81;5100424;27;45452;-65
2022/04/14 00:43:13;;;;;;;;;20.50;19.75;;;;;15.17;78.90;101698.16;5098832;27;45354;-66
2022/04/14 00:45:39;;;;;;;;;29.50;20.25;;;;;15.15;78.84;101705.19;5098543;27;45531;-66
2022/04/14 00:48:07;;;;;;;;;25.75;22.00;;;;;15.15;79.09;101699.97;5098426;27;48194;-65
2022/04/14 00:50:39;;;;;;;;;24.75;23.00;;;;;15.14;79.54;101700.88;5101285;27;45840;-65
2022/04/14 00:53:04;;;;;;;;;23.00;21.50;;;;;15.09;79.74;101701.00;5101841;27;45365;-65
2022/04/14 00:55:30;;;;;;;;;24.00;22.75;;;;;15.05;79.98;101699.41;5101564;27;45321;-66
2022/04/14 00:58:04;;;;;;;;;24.25;21.50;;;;;15.02;80.23;101704.75;5100060;27;48172;-66
2022/04/14 01:00:29;;;;;;;;;23.00;18.75;;;;;15.02;80.26;101709.13;5101572;27;45704;-65
2022/04/14 01:02:57;;;;;;;;;23.50;21.75;;;;;14.98;80.43;101705.72;5101777;27;45338;-65
2022/04/14 01:05:24;;;;;;;;;26.00;23.25;;;;;14.98;80.35;101708.31;5101258;27;45231;-65
2022/04/14 01:07:51;;;;;;;;;25.50;24.00;;;;;14.98;79.73;101707.47;5112551;27;47459;-64
2022/04/14 01:10:17;;;;;;;;;24.00;20.50;;;;;14.97;79.79;101703.13;5102028;27;45760;-65
2022/04/14 01:12:44;;;;;;;;;27.50;23.50;;;;;14.95;80.17;101705.81;5101484;27;45307;-65
2022/04/14 01:15:14;;;;;;;;;23.25;22.75;;;;;14.96;80.41;101704.03;5099459;27;45874;-64
2022/04/14 01:17:40;;;;;;;;;30.00;23.75;;;;;14.96;80.64;101704.03;5100932;27;45331;-64
2022/04/14 01:20:08;;;;;;;;;20.50;17.25;;;;;14.88;80.53;101696.44;5101369;27;45274;-65
2022/04/14 01:22:40;;;;;;;;;25.25;23.50;;;;;14.90;81.14;101719.03;5101180;27;45337;-65
2022/04/14 01:25:06;;;;;;;;;31.00;25.50;;;;;14.87;81.46;101716.53;5099793;27;45473;-64
2022/04/14 01:27:32;;;;;;;;;29.00;25.00;;;;;14.86;81.07;101719.19;5096311;27;46098;-64
2022/04/14 01:29:57;;;;;;;;;26.00;24.00;;;;;14.85;81.50;101718.31;5100771;27;45297;-64
2022/04/14 01:32:22;;;;;;;;;26.50;26.25;;;;;14.83;81.32;101721.91;5101174;27;45410;-64
2022/04/14 01:34:52;;;;;;;;;25.00;25.00;;;;;14.83;81.22;101720.13;5100193;27;45432;-64
2022/04/14 01:37:17;;;;;;;;;23.50;21.25;;;;;14.81;81.35;101715.81;5098984;27;47342;-64
2022/04/14 01:39:43;;;;;;;;;25.25;23.25;;;;;14.81;81.23;101726.28;5100993;27;45287;-64
2022/04/14 01:42:09;;;;;;;;;18.75;18.75;;;;;14.79;81.44;101721.09;5100969;27;45405;-64
2022/04/14 01:44:34;;;;;;;;;21.75;21.75;;;;;14.78;81.79;101724.63;5100717;27;45262;-64
2022/04/14 01:47:00;;;;;;;;;27.50;25.75;;;;;14.80;81.34;101722.81;5100465;27;46452;-66
2022/04/14 01:49:26;;;;;;;;;27.75;25.75;;;;;14.80;81.88;101720.19;5100740;27;45921;-67
2022/04/14 01:51:51;;;;;;;;;29.25;24.75;;;;;14.80;81.73;101720.19;5100940;27;45317;-67
2022/04/14 01:54:17;;;;;;;;;30.25;24.25;;;;;14.79;81.57;101708.00;5100891;27;45343;-66
2022/04/14 01:56:42;;;;;;;;;23.75;21.50;;;;;14.80;81.60;101712.34;5098932;27;48076;-67
2022/04/14 01:59:09;;;;;;;;;27.00;23.25;;;;;14.77;81.92;101711.59;5100561;27;45404;-67
2022/04/14 02:01:35;;;;;;;;;26.50;25.00;;;;;14.76;81.66;101704.63;5100615;27;45255;-66
2022/04/14 02:04:02;;;;;;;;;26.50;22.50;;;;;14.74;81.87;101709.06;5100691;27;45352;-67
2022/04/14 02:06:31;;;;;;;;;30.25;25.00;;;;;14.72;81.81;101703.03;5100061;27;46222;-68
2022/04/14 02:08:57;;;;;;;;;26.25;23.50;;;;;14.70;82.13;101697.84;5100552;27;45612;-66
2022/04/14 02:11:23;;;;;;;;;31.00;27.00;;;;;14.71;81.89;101703.94;5100468;27;45328;-67
2022/04/14 02:13:48;;;;;;;;;27.75;24.75;;;;;14.69;82.37;101703.97;5100234;27;45333;-67
2022/04/14 02:16:13;;;;;;;;;29.00;25.50;;;;;14.67;82.38;101713.63;5100244;27;46523;-67
2022/04/14 02:18:39;;;;;;;;;34.25;26.50;;;;;14.66;82.36;101711.06;5100460;27;45495;-66
2022/04/14 02:21:04;;;;;;;;;26.25;25.75;;;;;14.64;82.48;101713.72;5100112;27;45401;-66
2022/04/14 02:23:30;;;;;;;;;26.75;24.00;;;;;14.61;82.00;101708.53;5098961;27;45449;-66
2022/04/14 02:25:55;;;;;;;;;28.75;26.00;;;;;14.61;82.58;101703.31;5086452;27;45402;-66
2022/04/14 02:28:21;;;;;;;;;26.25;23.75;;;;;14.61;82.58;101709.41;5095230;27;45246;-66
2022/04/14 02:30:47;;;;;;;;;31.75;24.50;;;;;14.58;82.50;101706.88;5100579;27;45301;-65
2022/04/14 02:33:13;;;;;;;;;32.25;25.50;;;;;14.57;82.52;101712.16;5100188;27;45553;-65
2022/04/14 02:35:38;;;;;;;;;30.75;27.25;;;;;14.51;83.06;101707.97;5099858;27;45307;-65
2022/04/14 02:38:04;;;;;;;;;29.00;27.25;;;;;14.48;83.43;101713.28;5100063;27;45237;-66
2022/04/14 02:40:29;;;;;;;;;30.75;29.00;;;;;14.39;83.46;101710.03;5113360;27;45184;-65
2022/04/14 02:42:56;;;;;;;;;38.00;30.75;;;;;14.36;83.17;101717.97;5100537;27;45550;-65
2022/04/14 02:45:25;;;;;;;;;27.25;23.75;;;;;14.31;83.44;101715.47;5101411;27;45527;-64
2022/04/14 02:47:51;;;;;;;;;29.75;28.50;;;;;14.26;83.72;101718.22;5090406;27;45721;-65
2022/04/14 02:50:17;;;;;;;;;39.25;32.50;;;;;14.22;83.59;101714.00;5103528;27;45362;-65
2022/04/14 02:52:43;;;;;;;;;32.25;25.50;;;;;14.21;83.54;101725.31;5103718;27;45289;-64
2022/04/14 02:55:09;;;;;;;;;40.75;32.50;;;;;14.19;83.83;101721.88;5115819;27;48286;-64
2022/04/14 02:57:34;;;;;;;;;34.25;31.00;;;;;14.19;83.83;101715.78;5103501;27;45811;-64
2022/04/14 03:00:00;;;;;;;;;36.25;30.25;;;;;14.21;84.06;101709.63;5103120;27;45298;-65
2022/04/14 03:02:26;;;;;;;;;36.00;33.00;;;;;14.19;83.98;101711.44;5103198;27;45309;-65
2022/04/14 03:04:51;;;;;;;;;34.25;29.00;;;;;14.20;84.39;101715.75;5101754;27;47129;-65
2022/04/14 03:07:17;;;;;;;;;39.25;33.25;;;;;14.17;84.20;101728.91;5101700;27;45423;-64
2022/04/14 03:09:42;;;;;;;;;35.25;31.50;;;;;14.16;84.53;101731.56;5103091;27;45507;-64
2022/04/14 03:12:09;;;;;;;;;32.75;30.00;;;;;14.07;85.24;101737.06;5109465;27;45527;-65
2022/04/14 03:14:34;;;;;;;;;41.25;32.75;;;;;14.00;85.52;101728.50;5106902;27;47452;-65
2022/04/14 03:17:00;;;;;;;;;28.25;26.50;;;;;13.95;85.57;101733.84;5103173;27;45272;-64
2022/04/14 03:19:25;;;;;;;;;34.00;28.75;;;;;13.93;85.46;101727.81;5101677;27;45366;-67
2022/04/14 03:21:50;;;;;;;;;33.25;29.75;;;;;13.96;85.07;101724.25;5103160;27;45374;-67
2022/04/14 03:24:16;;;;;;;;;34.75;29.75;;;;;13.95;85.15;101728.63;5103027;27;45350;-67
2022/04/14 03:26:41;;;;;;;;;33.00;31.25;;;;;13.93;85.16;101733.03;5094706;27;45327;-66
2022/04/14 03:29:07;;;;;;;;;28.75;25.00;;;;;13.93;85.32;101724.34;5097329;27;45287;-66
2022/04/14 03:31:32;;;;;;;;;33.50;31.00;;;;;13.91;85.45;101720.91;5102840;27;47080;-67
2022/04/14 03:33:58;;;;;;;;;39.75;35.00;;;;;13.92;85.15;101733.06;5103068;27;46294;-67
2022/04/14 03:36:23;;;;;;;;;37.75;32.75;;;;;13.93;85.11;101729.56;5101170;27;45240;-66
2022/04/14 03:38:48;;;;;;;;;37.00;26.50;;;;;13.92;85.22;101736.53;5103175;27;45154;-66
2022/04/14 03:41:14;;;;;;;;;30.75;29.75;;;;;13.91;85.14;101737.44;5097102;27;45156;-67
2022/04/14 03:43:39;;;;;;;;;47.25;33.50;;;;;13.91;85.32;101740.06;5110208;27;47164;-67
2022/04/14 03:46:04;;;;;;;;;40.50;34.75;;;;;13.91;85.31;101739.19;5102515;27;45317;-67
2022/04/14 03:48:30;;;;;;;;;206.50;165.00;;;;;13.92;85.67;101740.91;5102770;27;45378;-67
2022/04/14 03:50:55;;;;;;;;;41.75;33.50;;;;;13.92;85.11;101739.16;5102423;27;45562;-67
2022/04/14 03:53:21;;;;;;;;;29.00;25.75;;;;;13.91;85.42;101737.44;5102531;27;45448;-67
2022/04/14 03:55:47;;;;;;;;;41.50;28.50;;;;;13.85;85.32;101731.53;5102281;27;45216;-67
2022/04/14 03:58:14;;;;;;;;;47.50;38.50;;;;;13.87;85.29;101743.66;5114840;27;45484;-66
2022/04/14 04:00:39;;;;;;;;;39.00;33.75;;;;;13.84;85.80;101735.03;5097895;27;46049;-67
2022/04/14 04:03:08;;;;;;;;;30.50;25.25;;;;;13.87;85.69;101740.19;5093999;27;46940;-66
2022/04/14 04:05:33;;;;;;;;;28.75;26.25;;;;;13.85;85.66;101728.91;5101165;27;45961;-67
2022/04/14 04:07:59;;;;;;;;;33.50;28.25;;;;;13.82;85.91;101729.00;5095147;27;45254;-67
2022/04/14 04:10:24;;;;;;;;;27.50;24.25;;;;;13.85;85.91;101731.53;5116331;27;45499;-66
2022/04/14 04:12:49;;;;;;;;;28.25;24.25;;;;;13.84;85.96;101730.66;5102287;27;46412;-67
2022/04/14 04:15:15;;;;;;;;;28.50;23.00;;;;;13.82;85.94;101722.00;5102135;27;45314;-67
2022/04/14 04:17:40;;;;;;;;;37.25;30.00;;;;;13.82;86.09;101727.22;5102602;27;45280;-67
2022/04/14 04:20:07;;;;;;;;;30.00;28.00;;;;;13.84;85.99;101737.66;5102076;27;45507;-67
2022/04/14 04:22:35;;;;;;;;;32.50;27.00;;;;;13.82;85.92;101731.59;5100626;27;48038;-67
2022/04/14 04:25:00;;;;;;;;;32.00;29.75;;;;;13.82;86.13;101735.06;5088514;27;45412;-67
2022/04/14 04:27:26;;;;;;;;;26.00;22.50;;;;;13.80;86.09;101725.53;5100365;27;45843;-67
2022/04/14 04:29:52;;;;;;;;;31.00;28.50;;;;;13.78;86.34;101733.41;5101491;27;45482;-67
2022/04/14 04:32:18;;;;;;;;;30.75;28.50;;;;;13.75;86.33;101732.63;5102117;27;45477;-70
2022/04/14 04:34:44;;;;;;;;;37.00;31.75;;;;;13.75;86.52;101748.31;5101886;27;45289;-70
2022/04/14 04:37:09;;;;;;;;;29.25;26.00;;;;;13.73;86.64;101747.47;5101738;27;47626;-70
2022/04/14 04:39:35;;;;;;;;;35.25;30.25;;;;;13.70;86.31;101746.66;5101645;27;45464;-72
2022/04/14 04:42:00;;;;;;;;;38.25;32.75;;;;;13.68;86.79;101750.22;5101736;27;45589;-74
2022/04/14 04:44:26;;;;;;;;;36.00;29.50;;;;;13.66;86.67;101758.09;5100205;27;45304;-74
2022/04/14 04:46:51;;;;;;;;;35.50;28.25;;;;;13.63;87.11;101770.38;5101782;27;45444;-77
2022/04/14 04:49:16;;;;;;;;;36.00;29.75;;;;;13.59;87.17;101766.09;5101469;27;45504;-72
2022/04/14 04:51:42;;;;;;;;;35.75;31.75;;;;;13.58;87.08;101761.75;5101401;27;45450;-70
2022/04/14 04:54:07;;;;;;;;;36.00;30.25;;;;;13.56;86.92;101774.00;5101172;27;45350;-67
2022/04/14 04:56:33;;;;;;;;;36.25;31.75;;;;;13.52;87.37;101765.38;5101456;27;45325;-73
2022/04/14 04:58:58;;;;;;;;;35.50;30.50;;;;;13.50;87.68;101768.94;5106988;27;45554;-70
2022/04/14 05:01:24;;;;;;;;;29.25;25.25;;;;;13.49;87.09;101772.44;5107573;27;47555;-69
2022/04/14 05:03:49;;;;;;;;;32.50;30.00;;;;;13.49;87.42;101764.59;5099967;27;45319;-78
2022/04/14 05:06:15;;;;;;;;;37.25;31.50;;;;;13.48;87.50;101765.50;5101497;27;45568;-77
2022/04/14 05:08:40;;;;;;;;;40.50;30.75;;;;;13.47;87.74;101763.78;5099997;27;45394;-67
2022/04/14 05:11:06;;;;;;;;;37.00;30.75;;;;;13.46;87.71;101760.31;5099483;27;47106;-67
2022/04/14 05:13:31;;;;;;;;;37.25;32.00;;;;;13.47;87.55;101762.03;5100750;27;45374;-68
2022/04/14 05:15:56;;;;;;;;;35.50;31.75;;;;;13.47;87.47;101762.03;5101579;27;45271;-69
2022/04/14 05:18:22;;;;;;;;;35.25;31.25;;;;;13.50;87.81;101767.19;5100578;27;45210;-67
2022/04/14 05:20:47;;;;;;;;;32.25;29.25;;;;;13.49;87.88;101773.28;5100882;27;45527;-71
2022/04/14 05:23:12;;;;;;;;;38.25;33.25;;;;;13.46;87.75;101775.97;5099337;27;45460;-67
2022/04/14 05:25:41;;;;;;;;;39.25;33.25;;;;;13.50;87.45;101776.75;5100832;27;45306;-69
2022/04/14 05:28:07;;;;;;;;;48.50;36.75;;;;;13.48;87.43;101774.19;5089178;27;45672;-68
2022/04/14 05:30:32;;;;;;;;;35.25;32.75;;;;;13.47;87.48;101771.63;5100489;27;45362;-67
2022/04/14 05:32:58;;;;;;;;;39.50;34.75;;;;;13.47;87.61;101775.09;5100043;27;45346;-68
2022/04/14 05:35:23;;;;;;;;;39.75;32.00;;;;;13.49;87.29;101785.50;5100230;27;45292;-66
2022/04/14 05:37:49;;;;;;;;;38.25;32.75;;;;;13.48;87.21;101789.84;5113950;27;45461;-68
2022/04/14 05:40:14;;;;;;;;;38.00;33.50;;;;;13.47;87.59;101795.97;5100509;27;47216;-75
2022/04/14 05:42:45;;;;;;;;;45.50;34.00;;;;;13.48;87.51;101789.84;5100195;27;45332;-67
2022/04/14 05:45:11;;;;;;;;;29.25;27.50;;;;;13.50;87.57;101793.28;5100504;27;45271;-63
2022/04/14 05:47:37;;;;;;;;;39.00;33.75;;;;;13.51;87.39;101791.53;5100123;27;45239;-64
2022/04/14 05:50:02;;;;;;;;;35.50;28.25;;;;;13.53;87.45;101805.41;5100364;27;46565;-65
2022/04/14 05:52:27;;;;;;;;;33.50;32.00;;;;;13.55;87.25;101798.41;5100366;27;45467;-66
2022/04/14 05:54:53;;;;;;;;;31.50;30.00;;;;;13.53;87.15;101795.81;5099296;27;45380;-64
2022/04/14 05:57:22;;;;;;;;;33.75;32.25;;;;;13.55;87.33;101796.66;5099882;27;45606;-65
2022/04/14 05:59:47;;;;;;;;;30.75;29.00;;;;;13.59;87.24;101798.28;5100081;27;45368;-64
2022/04/14 06:02:13;;;;;;;;;35.25;28.00;;;;;13.60;87.02;101793.94;5100443;27;45258;-64
2022/04/14 06:04:38;;;;;;;;;38.75;31.25;;;;;13.64;87.22;101793.84;5099015;27;45265;-62
2022/04/14 06:07:04;;;;;;;;;37.25;29.25;;;;;13.66;87.03;101793.81;5099702;27;45580;-63
2022/04/14 06:09:29;;;;;;;;;35.75;30.00;;;;;13.75;86.90;101792.72;5099797;27;45279;-63
2022/04/14 06:11:55;;;;;;;;;34.75;33.50;;;;;13.80;86.81;101794.31;5099939;27;45242;-61
2022/04/14 06:14:20;;;;;;;;;33.75;28.50;;;;;13.88;86.83;101800.22;5100025;27;45469;-62
2022/04/14 06:16:45;;;;;;;;;40.25;33.50;;;;;13.97;86.46;101812.22;5100255;27;45225;-65
2022/04/14 06:19:11;;;;;;;;;37.75;31.25;;;;;14.00;86.44;101819.97;5099954;27;45334;-63
2022/04/14 06:21:36;;;;;;;;;40.50;33.25;;;;;14.02;86.42;101826.03;5099810;27;45228;-63
2022/04/14 06:24:01;;;;;;;;;40.25;32.50;;;;;14.06;86.92;101830.28;5099917;27;45254;-62
2022/04/14 06:26:27;;;;;;;;;43.00;32.50;;;;;14.09;86.72;101822.38;5099447;27;45441;-63
2022/04/14 06:28:52;;;;;;;;;34.00;31.50;;;;;14.18;86.60;101831.72;5095227;27;46273;-63
2022/04/14 06:31:17;;;;;;;;;43.50;35.25;;;;;14.14;86.96;101830.09;5098273;27;45800;-62
2022/04/14 06:33:44;;;;;;;;;38.00;34.25;;;;;14.13;86.76;101839.69;5099954;27;45316;-62
2022/04/14 06:36:10;;;;;;;;;34.00;30.25;;;;;14.16;86.53;101831.75;5098316;27;46637;-63
2022/04/14 06:38:36;;;;;;;;;41.75;33.25;;;;;14.25;86.58;101834.16;5098171;27;46706;-63
2022/04/14 06:41:01;;;;;;;;;38.50;34.75;;;;;14.38;86.26;101845.16;5098078;27;45709;-63
2022/04/14 06:43:26;;;;;;;;;48.75;35.25;;;;;14.40;85.83;101829.44;5098344;27;45658;-63
2022/04/14 06:45:52;;;;;;;;;40.25;33.50;;;;;14.51;85.36;101845.75;5098268;27;45554;-63
2022/04/14 06:48:17;;;;;;;;;39.00;32.50;;;;;14.58;85.04;101848.16;5097818;27;45414;-63
2022/04/14 06:50:43;;;;;;;;;49.50;38.75;;;;;14.64;84.84;101844.53;5098217;27;45285;-62
2022/04/14 06:53:08;;;;;;;;;28.50;19.25;;;;;14.74;84.55;101851.22;5098319;27;45363;-63
2022/04/14 06:55:35;;;;;;;;;52.00;37.50;;;;;14.81;84.30;101844.91;5099434;27;45234;-63
2022/04/14 06:58:02;;;;;;;;;44.25;35.25;;;;;14.93;84.12;101853.34;5097598;27;45324;-63
2022/04/14 07:00:27;;;;;;;;;42.75;34.50;;;;;14.95;83.82;101859.38;5098372;27;46127;-63
2022/04/14 07:02:54;;;;;;;;;47.00;35.75;;;;;14.91;83.67;101851.63;5098219;27;45539;-62
2022/04/14 07:05:21;;;;;;;;;34.25;29.00;;;;;14.94;83.64;101848.06;5097178;27;45424;-63
2022/04/14 07:07:46;;;;;;;;;38.75;35.25;;;;;14.96;83.87;101846.25;5095918;27;46578;-63
2022/04/14 07:10:13;;;;;;;;;35.50;31.00;;;;;14.97;83.41;101853.19;5098596;27;45452;-63
2022/04/14 07:12:39;;;;;;;;;39.50;34.50;;;;;14.93;83.51;101854.19;5098640;27;45308;-63
2022/04/14 07:15:05;;;;;;;;;38.75;31.25;;;;;14.87;83.05;101850.00;5098293;27;45625;-63
2022/04/14 07:17:30;;;;;;;;;43.25;35.25;;;;;14.84;83.04;101857.09;5099004;27;46515;-62
2022/04/14 07:19:57;;;;;;;;;38.75;30.00;;;;;14.90;83.63;101854.28;5099026;27;45379;-62
2022/04/14 07:22:23;;;;;;;;;40.25;30.00;;;;;14.99;83.10;101861.00;5096192;27;45368;-62
2022/04/14 07:24:49;;;;;;;;;38.75;29.00;;;;;14.98;82.71;101854.91;5095593;27;45510;-62
2022/04/14 07:27:20;;;;;;;;;38.50;34.50;;;;;14.97;82.74;101858.44;5097304;27;47443;-64
2022/04/14 07:29:46;;;;;;;;;38.25;35.00;;;;;14.95;82.70;101869.84;5097164;27;45359;-63
2022/04/14 07:32:12;;;;;;;;;31.75;29.50;;;;;14.91;82.53;101854.25;5100849;27;45278;-63
2022/04/14 07:34:38;;;;;;;;;34.50;28.00;;;;;14.91;82.42;101862.09;5102290;27;45572;-63
2022/04/14 07:37:03;;;;;;;;;35.00;30.00;;;;;14.87;82.47;101870.06;5102120;27;45648;-63
2022/04/14 07:39:29;;;;;;;;;43.50;33.00;;;;;14.89;82.74;101868.28;5102307;27;45305;-63
2022/04/14 07:41:54;;;;;;;;;32.00;29.75;;;;;14.88;82.70;101874.41;5098762;27;45464;-63
2022/04/14 07:44:20;;;;;;;;;32.25;29.25;;;;;14.94;82.51;101868.13;5099775;27;45359;-63
2022/04/14 07:46:45;;;;;;;;;38.25;32.00;;;;;15.05;82.57;101887.91;5100695;27;45475;-63
2022/04/14 07:49:10;;;;;;;;;32.50;31.25;;;;;15.15;82.40;101885.88;5100417;27;45408;-63
2022/04/14 07:51:36;;;;;;;;;29.50;26.00;;;;;15.27;81.68;101877.69;5100787;27;45415;-63
2022/04/14 07:54:01;;;;;;;;;33.25;26.25;;;;;15.35;81.22;101880.91;5100766;27;45456;-63
2022/04/14 07:56:26;;;;;;;;;27.50;24.50;;;;;15.44;81.00;101880.66;5101977;27;45328;-63
2022/04/14 07:58:52;;;;;;;;;31.25;27.00;;;;;15.57;80.73;101883.75;5100399;27;45345;-63
2022/04/14 08:01:20;;;;;;;;;26.75;25.00;;;;;15.64;79.75;101881.88;5102312;27;45663;-63
2022/04/14 08:03:47;;;;;;;;;21.25;20.00;;;;;15.72;79.17;101885.09;5100555;27;45251;-63
2022/04/14 08:06:13;;;;;;;;;30.00;24.75;;;;;15.73;77.83;101882.44;5102298;27;47070;-63
2022/04/14 08:08:40;;;;;;;;;27.75;25.75;;;;;15.80;77.47;101877.84;5115783;27;45333;-63
2022/04/14 08:11:08;;;;;;;;;32.50;25.75;;;;;15.89;78.34;101879.34;5102593;27;45353;-63
2022/04/14 08:13:37;;;;;;;;;25.25;21.00;;;;;15.95;77.50;101872.13;5101732;27;45239;-63
2022/04/14 08:16:08;;;;;;;;;25.50;25.00;;;;;15.97;76.46;101875.56;5101991;27;46427;-63
2022/04/14 08:18:38;;;;;;;;;28.25;24.50;;;;;16.03;76.69;101880.63;5087492;27;45837;-63
2022/04/14 08:21:04;;;;;;;;;30.50;25.25;;;;;16.11;76.06;101886.47;5101876;27;45329;-62
2022/04/14 08:23:30;;;;;;;;;29.75;26.50;;;;;16.18;76.46;101883.66;5102079;27;45324;-62
2022/04/14 08:25:55;;;;;;;;;29.00;25.75;;;;;16.28;76.44;101883.31;5098559;27;47442;-62
2022/04/14 08:28:21;;;;;;;;;24.50;21.50;;;;;16.37;76.02;101879.50;5100848;27;45316;-63
2022/04/14 08:30:46;;;;;;;;;27.25;24.50;;;;;16.45;76.01;101876.66;5102250;27;45357;-63
2022/04/14 08:33:13;;;;;;;;;35.50;31.50;;;;;16.49;75.62;101886.97;5101824;27;45692;-64
2022/04/14 08:35:39;;;;;;;;;29.00;26.50;;;;;16.56;75.71;101883.22;5100059;27;48516;-63
2022/04/14 08:38:09;;;;;;;;;31.75;30.00;;;;;16.78;75.18;101885.16;5108246;27;45889;-64
2022/04/14 08:40:37;;;;;;;;;32.50;28.50;;;;;16.90;75.02;101888.22;5108491;27;45348;-63
2022/04/14 08:43:04;;;;;;;;;37.50;29.50;;;;;17.06;74.26;101883.28;5100028;27;45188;-64
2022/04/14 08:45:32;;;;;;;;;31.00;26.50;;;;;17.13;73.88;101876.88;5101818;27;46183;-63
2022/04/14 08:47:59;;;;;;;;;34.75;30.75;;;;;17.23;73.65;101880.88;5101598;27;45488;-63
2022/04/14 08:50:25;;;;;;;;;40.25;30.75;;;;;17.40;73.12;101888.13;5114003;27;45418;-63
2022/04/14 08:52:51;;;;;;;;;34.75;31.25;;;;;17.52;73.28;101894.69;5101223;27;45480;-63
2022/04/14 08:55:17;;;;;;;;;43.75;33.50;;;;;17.59;73.00;101888.28;5101015;27;45648;-64
2022/04/14 08:57:44;;;;;;;;;37.75;31.00;;;;;17.66;72.40;101892.41;5101220;27;45705;-64
2022/04/14 09:00:18;;;;;;;;;29.75;27.00;;;;;17.72;72.18;101888.72;5101277;27;45314;-63
2022/04/14 09:02:46;;;;;;;;;40.00;30.00;;;;;17.81;72.08;101890.97;5101447;27;45253;-63
2022/04/14 09:05:17;;;;;;;;;34.50;29.00;;;;;17.93;71.54;101888.72;5101192;27;45357;-63
2022/04/14 09:07:52;;;;;;;;;28.50;25.00;;;;;18.05;71.26;101890.00;5096525;27;45430;-63
2022/04/14 09:10:21;;;;;;;;;28.50;26.00;;;;;18.17;71.06;101891.28;5100212;27;45417;-63
2022/04/14 09:12:50;;;;;;;;;32.25;29.25;;;;;18.17;69.96;101891.28;5099759;27;45269;-63
2022/04/14 09:15:16;;;;;;;;;31.75;27.50;;;;;18.16;69.86;101892.19;5101203;27;45609;-64
2022/04/14 09:17:42;;;;;;;;;39.00;31.75;;;;;18.17;70.18;101892.13;5099897;27;45799;-64
2022/04/14 09:20:26;;;;;;;;;27.75;24.75;;;;;18.20;69.67;101891.13;5107448;27;45420;-64
2022/04/14 09:23:10;;;;;;;;;32.00;26.00;;;;;18.13;68.60;101889.69;5103043;27;45592;-62
2022/04/14 09:25:35;;;;;;;;;30.00;26.25;;;;;18.15;69.58;101887.84;5101267;27;46637;-63
2022/04/14 09:28:09;;;;;;;;;28.75;23.25;;;;;18.17;68.21;101886.88;5095197;27;45420;-63
2022/04/14 09:30:34;;;;;;;;;27.00;25.25;;;;;18.18;68.04;101896.47;5101137;27;45267;-63
2022/04/14 09:33:02;;;;;;;;;30.25;27.25;;;;;18.22;68.98;101891.97;5100705;27;45465;-63
2022/04/14 09:35:31;;;;;;;;;26.50;25.00;;;;;18.33;68.55;101887.09;5100646;27;46281;-63
2022/04/14 09:38:01;;;;;;;;;29.00;26.00;;;;;18.45;68.49;101881.34;5100471;27;45176;-63
2022/04/14 09:40:30;;;;;;;;;27.00;26.25;;;;;18.59;68.05;101879.88;5100998;27;45325;-63
2022/04/14 09:42:56;;;;;;;;;32.50;29.25;;;;;18.68;67.84;101879.53;5100338;27;45164;-63
2022/04/14 09:45:23;;;;;;;;;29.00;26.75;;;;;18.75;67.93;101873.06;5100392;27;46348;-63
2022/04/14 09:47:50;;;;;;;;;33.25;27.25;;;;;18.85;67.09;101874.38;5087206;27;45320;-64
2022/04/14 09:50:27;;;;;;;;;27.25;21.75;;;;;18.99;67.69;101877.25;5100782;27;45457;-64
2022/04/14 09:53:13;;;;;;;;;26.50;23.50;;;;;19.06;64.51;101881.34;5100803;27;45491;-61
2022/04/14 09:55:42;;;;;;;;;34.25;26.25;;;;;19.05;66.30;101887.53;5099596;27;45408;-62
2022/04/14 09:58:19;;;;;;;;;33.50;25.50;;;;;19.06;65.54;101876.06;5098633;27;45870;-63
2022/04/14 10:00:46;;;;;;;;;33.50;29.50;;;;;19.13;66.20;101879.28;5086671;27;45264;-63
2022/04/14 10:03:13;;;;;;;;;21.50;20.75;;;;;19.22;65.08;101888.53;5100173;27;45728;-63
2022/04/14 10:05:39;;;;;;;;;20.00;18.75;;;;;19.26;64.24;101880.44;5100410;27;45307;-63
2022/04/14 10:08:08;;;;;;;;;25.25;24.75;;;;;19.36;64.48;101889.63;5100153;27;45230;-63
2022/04/14 10:10:40;;;;;;;;;22.75;21.00;;;;;19.44;64.85;101884.03;5100302;27;45347;-63
2022/04/14 10:13:09;;;;;;;;;19.25;18.50;;;;;19.42;63.96;101878.81;5096790;27;45479;-63
2022/04/14 10:15:37;;;;;;;;;25.25;21.00;;;;;19.48;64.22;101882.09;5099460;27;45646;-63
2022/04/14 10:18:09;;;;;;;;;19.75;17.25;;;;;19.52;63.54;101878.38;5099692;27;45579;-63
2022/04/14 10:20:36;;;;;;;;;20.00;18.25;;;;;19.50;62.90;101880.22;5099909;27;45453;-63
2022/04/14 10:23:02;;;;;;;;;17.75;13.50;;;;;19.56;62.54;101872.06;5098472;27;46004;-63
2022/04/14 10:25:32;;;;;;;;;18.25;15.00;;;;;19.66;62.51;101866.28;5098392;27;47586;-63
2022/04/14 10:27:59;;;;;;;;;21.25;18.00;;;;;19.77;62.57;101864.91;5097194;27;45695;-63
2022/04/14 10:30:25;;;;;;;;;19.25;17.00;;;;;19.83;60.52;101868.13;5098234;27;45411;-64
2022/04/14 10:32:55;;;;;;;;;20.25;18.25;;;;;19.81;60.88;101858.56;5099555;27;45324;-63
2022/04/14 10:35:22;;;;;;;;;16.25;14.50;;;;;19.80;60.07;101868.25;5097603;27;47296;-64
2022/04/14 10:37:53;;;;;;;;;17.00;15.00;;;;;19.84;61.00;101879.53;5099379;27;45562;-64
2022/04/14 10:40:18;;;;;;;;;21.00;15.75;;;;;19.84;57.45;101868.97;5099846;27;45291;-63
2022/04/14 10:42:56;;;;;;;;;17.75;15.75;;;;;19.89;59.86;101856.41;5101163;27;45319;-64
2022/04/14 10:45:23;;;;;;;;;16.25;13.50;;;;;19.93;58.88;101844.78;5099900;27;46165;-64
2022/04/14 10:47:55;;;;;;;;;12.75;11.00;;;;;20.03;58.11;101856.59;5086375;27;45633;-64
2022/04/14 10:50:26;;;;;;;;;12.75;10.00;;;;;20.18;57.95;101858.47;5099229;27;45290;-63
2022/04/14 10:53:09;;;;;;;;;12.00;9.00;;;;;20.35;57.92;101858.47;5106852;27;45483;-63
2022/04/14 10:55:37;;;;;;;;;14.25;12.00;;;;;20.49;57.84;101859.59;5100139;27;47285;-63
2022/04/14 10:58:03;;;;;;;;;10.25;8.75;;;;;20.61;57.00;101857.16;5097557;27;45604;-63
2022/04/14 11:00:31;;;;;;;;;16.00;12.75;;;;;20.75;57.26;101859.09;5102689;27;45250;-63
2022/04/14 11:03:07;;;;;;;;;9.75;8.50;;;;;20.90;55.20;101857.47;5107158;27;45191;-63
2022/04/14 11:05:44;;;;;;;;;16.50;13.25;;;;;20.99;56.72;101856.94;5098886;27;45336;-62
2022/04/14 11:08:25;;;;;;;;;14.75;13.50;;;;;21.03;56.14;101865.59;5101790;27;45761;-62